Changchun Longjia International

Airport
ICAO code: 
ZYCC
Summary
ICAO Region: 
APAC
Territory: 
Location: 
Changchun, Jilin,
Coordinates: 
Aerial View: 
43° 59' 46" N, 125° 41' 7.001" E
Metar
Observation
ZYCC 292000Z 03002MPS 360V060 3000 -SN BR OVC020 M07/M09 Q1020 NOSIG
Station
Changchun
Date/Time
2021-11-29 20:00:00
Wind direction
30°
Lowest cloud amount
overcast
Temperature
-7°C
Dew point
-9°C
Humidity
85%
QNH
1020 hPa
Weather condition
n/a

Changchun Longjia International Airport is an airport in Jilin Province, People's Republic of China (IATA: CGQ), for which it is an aviation hub. The airport is 31.2 km north-east of Changchun and 76 km north-west of Jilin City.

Runways

Designator Length Width Surface Rops
6/24 3200 45 CON Yes/Yes
Airport map: 
Aerial View: 

SKYbrary Partners:

Safety knowledge contributed by: